sensor_id;sensor_type;location;lat;lon;timestamp;temperature;humidity
9760;DHT22;4919;48.792;9.202;2022-10-22T00:02:20;13.20;99.90
9760;DHT22;4919;48.792;9.202;2022-10-22T00:04:48;13.30;99.90
9760;DHT22;4919;48.792;9.202;2022-10-22T00:07:19;13.40;99.90
9760;DHT22;4919;48.792;9.202;2022-10-22T00:09:46;13.40;99.90
9760;DHT22;4919;48.792;9.202;2022-10-22T00:12:14;13.40;99.90
9760;DHT22;4919;48.792;9.202;2022-10-22T00:14:41;13.40;99.90
9760;DHT22;4919;48.792;9.202;2022-10-22T00:17:09;13.30;99.90
9760;DHT22;4919;48.792;9.202;2022-10-22T00:19:38;13.40;99.90
9760;DHT22;4919;48.792;9.202;2022-10-22T00:22:05;13.40;99.90
9760;DHT22;4919;48.792;9.202;2022-10-22T00:24:33;13.30;99.90
9760;DHT22;4919;48.792;9.202;2022-10-22T00:27:01;13.40;99.90
9760;DHT22;4919;48.792;9.202;2022-10-22T00:29:28;13.40;99.90
9760;DHT22;4919;48.792;9.202;2022-10-22T00:31:55;13.40;99.90
9760;DHT22;4919;48.792;9.202;2022-10-22T00:34:22;13.40;99.90
9760;DHT22;4919;48.792;9.202;2022-10-22T00:36:50;13.40;99.90
9760;DHT22;4919;48.792;9.202;2022-10-22T00:39:19;13.40;99.90
9760;DHT22;4919;48.792;9.202;2022-10-22T00:41:47;13.40;99.90
9760;DHT22;4919;48.792;9.202;2022-10-22T00:47:19;13.40;99.90
9760;DHT22;4919;48.792;9.202;2022-10-22T00:49:49;13.40;99.90
9760;DHT22;4919;48.792;9.202;2022-10-22T00:52:17;13.30;99.90
9760;DHT22;4919;48.792;9.202;2022-10-22T00:54:43;13.30;99.90
9760;DHT22;4919;48.792;9.202;2022-10-22T00:57:10;13.30;99.90
9760;DHT22;4919;48.792;9.202;2022-10-22T00:59:37;13.30;99.90
9760;DHT22;4919;48.792;9.202;2022-10-22T01:02:05;13.30;99.90
9760;DHT22;4919;48.792;9.202;2022-10-22T01:04:31;13.30;99.90
9760;DHT22;4919;48.792;9.202;2022-10-22T01:06:58;13.30;99.90
9760;DHT22;4919;48.792;9.202;2022-10-22T01:09:40;13.30;99.90
9760;DHT22;4919;48.792;9.202;2022-10-22T01:20:44;13.30;99.90
9760;DHT22;4919;48.792;9.202;2022-10-22T01:26:36;13.30;99.90
9760;DHT22;4919;48.792;9.202;2022-10-22T01:29:15;13.30;99.90
9760;DHT22;4919;48.792;9.202;2022-10-22T01:31:46;13.30;99.90
9760;DHT22;4919;48.792;9.202;2022-10-22T01:34:17;13.20;99.90
9760;DHT22;4919;48.792;9.202;2022-10-22T01:36:45;13.20;99.90
9760;DHT22;4919;48.792;9.202;2022-10-22T01:39:14;13.20;99.90
9760;DHT22;4919;48.792;9.202;2022-10-22T01:41:44;13.20;99.90
9760;DHT22;4919;48.792;9.202;2022-10-22T01:44:26;13.10;99.90
9760;DHT22;4919;48.792;9.202;2022-10-22T01:55:13;13.10;99.90
9760;DHT22;4919;48.792;9.202;2022-10-22T01:57:47;13.00;99.90
9760;DHT22;4919;48.792;9.202;2022-10-22T02:00:17;13.00;99.90
9760;DHT22;4919;48.792;9.202;2022-10-22T02:03:12;13.10;99.90
9760;DHT22;4919;48.792;9.202;2022-10-22T02:05:48;13.00;99.90
9760;DHT22;4919;48.792;9.202;2022-10-22T02:08:21;13.00;99.90
9760;DHT22;4919;48.792;9.202;2022-10-22T02:10:50;13.00;99.90
9760;DHT22;4919;48.792;9.202;2022-10-22T02:13:32;13.00;99.90
9760;DHT22;4919;48.792;9.202;2022-10-22T02:16:03;13.00;99.90
9760;DHT22;4919;48.792;9.202;2022-10-22T02:18:34;13.00;99.90
9760;DHT22;4919;48.792;9.202;2022-10-22T02:21:05;12.90;99.90
9760;DHT22;4919;48.792;9.202;2022-10-22T02:23:38;13.00;99.90
9760;DHT22;4919;48.792;9.202;2022-10-22T02:26:22;13.00;99.90
9760;DHT22;4919;48.792;9.202;2022-10-22T02:31:27;12.90;99.90
9760;DHT22;4919;48.792;9.202;2022-10-22T02:33:58;12.90;99.90
9760;DHT22;4919;48.792;9.202;2022-10-22T02:36:26;12.90;99.90
9760;DHT22;4919;48.792;9.202;2022-10-22T02:38:54;12.90;99.90
9760;DHT22;4919;48.792;9.202;2022-10-22T02:41:22;12.80;99.90
9760;DHT22;4919;48.792;9.202;2022-10-22T02:43:52;12.90;99.90
9760;DHT22;4919;48.792;9.202;2022-10-22T02:46:21;12.80;99.90
9760;DHT22;4919;48.792;9.202;2022-10-22T02:48:48;12.80;99.90
9760;DHT22;4919;48.792;9.202;2022-10-22T02:51:15;12.80;99.90
9760;DHT22;4919;48.792;9.202;2022-10-22T02:53:41;12.80;99.90
9760;DHT22;4919;48.792;9.202;2022-10-22T02:56:09;12.80;99.90
9760;DHT22;4919;48.792;9.202;2022-10-22T02:58:35;12.80;99.90
9760;DHT22;4919;48.792;9.202;2022-10-22T03:01:02;12.80;99.90
9760;DHT22;4919;48.792;9.202;2022-10-22T03:03:29;12.80;99.90
9760;DHT22;4919;48.792;9.202;2022-10-22T03:05:56;12.80;99.90
9760;DHT22;4919;48.792;9.202;2022-10-22T03:08:23;12.80;99.90
9760;DHT22;4919;48.792;9.202;2022-10-22T03:10:50;12.80;99.90
9760;DHT22;4919;48.792;9.202;2022-10-22T03:13:17;12.80;99.90
9760;DHT22;4919;48.792;9.202;2022-10-22T03:15:43;12.80;99.90
9760;DHT22;4919;48.792;9.202;2022-10-22T03:18:10;12.80;99.90
9760;DHT22;4919;48.792;9.202;2022-10-22T03:20:37;12.80;99.90
9760;DHT22;4919;48.792;9.202;2022-10-22T03:23:04;12.80;99.90
9760;DHT22;4919;48.792;9.202;2022-10-22T03:25:31;12.80;99.90
9760;DHT22;4919;48.792;9.202;2022-10-22T03:28:02;12.80;99.90
9760;DHT22;4919;48.792;9.202;2022-10-22T03:30:30;12.80;99.90
9760;DHT22;4919;48.792;9.202;2022-10-22T03:32:57;12.80;99.90
9760;DHT22;4919;48.792;9.202;2022-10-22T03:35:24;12.80;99.90
9760;DHT22;4919;48.792;9.202;2022-10-22T03:37:51;12.80;99.90
9760;DHT22;4919;48.792;9.202;2022-10-22T03:40:18;12.80;99.90
9760;DHT22;4919;48.792;9.202;2022-10-22T03:42:46;12.80;99.90
9760;DHT22;4919;48.792;9.202;2022-10-22T03:45:12;12.80;99.90
9760;DHT22;4919;48.792;9.202;2022-10-22T03:47:39;12.80;99.90
9760;DHT22;4919;48.792;9.202;2022-10-22T03:50:07;12.80;99.90
9760;DHT22;4919;48.792;9.202;2022-10-22T03:52:36;12.80;99.90
9760;DHT22;4919;48.792;9.202;2022-10-22T03:55:04;12.80;99.90
9760;DHT22;4919;48.792;9.202;2022-10-22T03:57:31;12.80;99.90
9760;DHT22;4919;48.792;9.202;2022-10-22T03:59:58;12.80;99.90
9760;DHT22;4919;48.792;9.202;2022-10-22T04:02:25;12.80;99.90
9760;DHT22;4919;48.792;9.202;2022-10-22T04:04:52;12.70;99.90
9760;DHT22;4919;48.792;9.202;2022-10-22T04:07:18;12.70;99.90
9760;DHT22;4919;48.792;9.202;2022-10-22T04:09:45;12.70;99.90
9760;DHT22;4919;48.792;9.202;2022-10-22T04:12:12;12.70;99.90
9760;DHT22;4919;48.792;9.202;2022-10-22T04:14:39;12.70;99.90
9760;DHT22;4919;48.792;9.202;2022-10-22T04:17:06;12.70;99.90
9760;DHT22;4919;48.792;9.202;2022-10-22T04:19:32;12.70;99.90
9760;DHT22;4919;48.792;9.202;2022-10-22T04:22:00;12.70;99.90
9760;DHT22;4919;48.792;9.202;2022-10-22T04:24:29;12.70;99.90
9760;DHT22;4919;48.792;9.202;2022-10-22T04:26:57;12.70;99.90
9760;DHT22;4919;48.792;9.202;2022-10-22T04:29:25;12.70;99.90
9760;DHT22;4919;48.792;9.202;2022-10-22T04:31:52;12.70;99.90
9760;DHT22;4919;48.792;9.202;2022-10-22T04:34:19;12.70;99.90
9760;DHT22;4919;48.792;9.202;2022-10-22T04:36:46;12.70;99.90
9760;DHT22;4919;48.792;9.202;2022-10-22T04:39:13;12.70;99.90
9760;DHT22;4919;48.792;9.202;2022-10-22T04:41:40;12.60;99.90
9760;DHT22;4919;48.792;9.202;2022-10-22T04:44:07;12.60;99.90
9760;DHT22;4919;48.792;9.202;2022-10-22T04:46:41;12.60;99.90
9760;DHT22;4919;48.792;9.202;2022-10-22T04:49:08;12.60;99.90
9760;DHT22;4919;48.792;9.202;2022-10-22T04:51:35;12.60;99.90
9760;DHT22;4919;48.792;9.202;2022-10-22T04:54:03;12.60;99.90
9760;DHT22;4919;48.792;9.202;2022-10-22T04:56:31;12.60;99.90
9760;DHT22;4919;48.792;9.202;2022-10-22T04:59:00;12.50;99.90
9760;DHT22;4919;48.792;9.202;2022-10-22T05:01:33;12.50;99.90
9760;DHT22;4919;48.792;9.202;2022-10-22T05:04:14;12.50;99.90
9760;DHT22;4919;48.792;9.202;2022-10-22T05:06:42;12.50;99.90
9760;DHT22;4919;48.792;9.202;2022-10-22T05:09:18;12.50;99.90
9760;DHT22;4919;48.792;9.202;2022-10-22T05:11:48;12.50;99.90
9760;DHT22;4919;48.792;9.202;2022-10-22T05:14:21;12.50;99.90
9760;DHT22;4919;48.792;9.202;2022-10-22T05:16:49;12.40;99.90
9760;DHT22;4919;48.792;9.202;2022-10-22T05:19:26;12.40;99.90
9760;DHT22;4919;48.792;9.202;2022-10-22T05:21:57;12.40;99.90
9760;DHT22;4919;48.792;9.202;2022-10-22T05:24:25;12.40;99.90
9760;DHT22;4919;48.792;9.202;2022-10-22T05:26:55;12.40;99.90
9760;DHT22;4919;48.792;9.202;2022-10-22T05:29:23;12.40;99.90
9760;DHT22;4919;48.792;9.202;2022-10-22T05:31:50;12.40;99.90
9760;DHT22;4919;48.792;9.202;2022-10-22T05:34:17;12.30;99.90
9760;DHT22;4919;48.792;9.202;2022-10-22T05:36:44;12.40;99.90
9760;DHT22;4919;48.792;9.202;2022-10-22T05:39:11;12.30;99.90
9760;DHT22;4919;48.792;9.202;2022-10-22T05:41:38;12.30;99.90
9760;DHT22;4919;48.792;9.202;2022-10-22T05:44:05;12.30;99.90
9760;DHT22;4919;48.792;9.202;2022-10-22T05:46:34;12.30;99.90
9760;DHT22;4919;48.792;9.202;2022-10-22T05:49:03;12.30;99.90
9760;DHT22;4919;48.792;9.202;2022-10-22T05:51:33;12.30;99.90
9760;DHT22;4919;48.792;9.202;2022-10-22T05:54:02;12.30;99.90
9760;DHT22;4919;48.792;9.202;2022-10-22T05:56:30;12.20;99.90
9760;DHT22;4919;48.792;9.202;2022-10-22T05:58:58;12.30;99.90
9760;DHT22;4919;48.792;9.202;2022-10-22T06:01:30;12.30;99.90
9760;DHT22;4919;48.792;9.202;2022-10-22T06:03:59;12.20;99.90
9760;DHT22;4919;48.792;9.202;2022-10-22T06:06:53;12.30;99.90
9760;DHT22;4919;48.792;9.202;2022-10-22T06:09:27;12.30;99.90
9760;DHT22;4919;48.792;9.202;2022-10-22T06:11:56;12.30;99.90
9760;DHT22;4919;48.792;9.202;2022-10-22T06:14:24;12.30;99.90
9760;DHT22;4919;48.792;9.202;2022-10-22T06:16:52;12.40;99.90
9760;DHT22;4919;48.792;9.202;2022-10-22T06:19:21;12.40;99.90
9760;DHT22;4919;48.792;9.202;2022-10-22T06:21:48;12.40;99.90
9760;DHT22;4919;48.792;9.202;2022-10-22T06:24:15;12.30;99.90
9760;DHT22;4919;48.792;9.202;2022-10-22T06:26:42;12.30;99.90
9760;DHT22;4919;48.792;9.202;2022-10-22T06:29:09;12.30;99.90
9760;DHT22;4919;48.792;9.202;2022-10-22T06:31:36;12.30;99.90
9760;DHT22;4919;48.792;9.202;2022-10-22T06:34:05;12.30;99.90
9760;DHT22;4919;48.792;9.202;2022-10-22T06:36:32;12.40;99.90
9760;DHT22;4919;48.792;9.202;2022-10-22T06:38:59;12.40;99.90
9760;DHT22;4919;48.792;9.202;2022-10-22T06:41:26;12.40;99.90
9760;DHT22;4919;48.792;9.202;2022-10-22T06:43:55;12.40;99.90
9760;DHT22;4919;48.792;9.202;2022-10-22T06:46:23;12.40;99.90
9760;DHT22;4919;48.792;9.202;2022-10-22T06:48:55;12.40;99.90
9760;DHT22;4919;48.792;9.202;2022-10-22T06:51:23;12.40;99.90
9760;DHT22;4919;48.792;9.202;2022-10-22T06:53:50;12.40;99.90
9760;DHT22;4919;48.792;9.202;2022-10-22T06:56:19;12.40;99.90
9760;DHT22;4919;48.792;9.202;2022-10-22T06:58:51;12.50;99.90
9760;DHT22;4919;48.792;9.202;2022-10-22T07:01:20;12.50;99.90
9760;DHT22;4919;48.792;9.202;2022-10-22T07:03:49;12.50;99.90
9760;DHT22;4919;48.792;9.202;2022-10-22T07:06:17;12.50;99.90
9760;DHT22;4919;48.792;9.202;2022-10-22T07:08:44;12.50;99.90
9760;DHT22;4919;48.792;9.202;2022-10-22T07:13:42;12.60;99.90
9760;DHT22;4919;48.792;9.202;2022-10-22T07:16:10;12.60;99.90
9760;DHT22;4919;48.792;9.202;2022-10-22T07:18:38;12.60;99.90
9760;DHT22;4919;48.792;9.202;2022-10-22T07:21:07;12.70;99.90
9760;DHT22;4919;48.792;9.202;2022-10-22T07:23:34;12.70;99.90
9760;DHT22;4919;48.792;9.202;2022-10-22T07:26:01;12.70;99.90
9760;DHT22;4919;48.792;9.202;2022-10-22T07:28:29;12.70;99.90
9760;DHT22;4919;48.792;9.202;2022-10-22T07:30:56;12.80;99.90
9760;DHT22;4919;48.792;9.202;2022-10-22T07:33:23;12.90;99.90
9760;DHT22;4919;48.792;9.202;2022-10-22T07:35:49;12.90;99.90
9760;DHT22;4919;48.792;9.202;2022-10-22T07:38:16;12.90;99.90
9760;DHT22;4919;48.792;9.202;2022-10-22T07:40:43;13.00;99.90
9760;DHT22;4919;48.792;9.202;2022-10-22T07:43:10;13.00;99.90
9760;DHT22;4919;48.792;9.202;2022-10-22T07:45:37;13.00;99.90
9760;DHT22;4919;48.792;9.202;2022-10-22T07:48:04;13.10;99.90
9760;DHT22;4919;48.792;9.202;2022-10-22T07:50:31;13.10;99.90
9760;DHT22;4919;48.792;9.202;2022-10-22T07:52:58;13.00;99.90
9760;DHT22;4919;48.792;9.202;2022-10-22T07:55:25;13.00;99.90
9760;DHT22;4919;48.792;9.202;2022-10-22T07:57:52;13.00;99.90
9760;DHT22;4919;48.792;9.202;2022-10-22T08:00:19;13.00;99.90
9760;DHT22;4919;48.792;9.202;2022-10-22T08:02:51;13.00;99.90
9760;DHT22;4919;48.792;9.202;2022-10-22T08:05:18;13.10;99.90
9760;DHT22;4919;48.792;9.202;2022-10-22T08:07:45;13.10;99.90
9760;DHT22;4919;48.792;9.202;2022-10-22T08:10:12;13.10;99.90
9760;DHT22;4919;48.792;9.202;2022-10-22T08:12:39;13.00;99.90
9760;DHT22;4919;48.792;9.202;2022-10-22T08:15:07;13.10;99.90
9760;DHT22;4919;48.792;9.202;2022-10-22T08:17:35;13.10;99.90
9760;DHT22;4919;48.792;9.202;2022-10-22T08:20:03;13.20;99.90
9760;DHT22;4919;48.792;9.202;2022-10-22T08:22:29;13.20;99.90
9760;DHT22;4919;48.792;9.202;2022-10-22T08:24:56;13.20;99.90
9760;DHT22;4919;48.792;9.202;2022-10-22T08:27:23;13.20;99.90
9760;DHT22;4919;48.792;9.202;2022-10-22T08:29:50;13.30;99.90
9760;DHT22;4919;48.792;9.202;2022-10-22T08:32:17;13.30;99.90
9760;DHT22;4919;48.792;9.202;2022-10-22T08:34:44;13.30;99.90
9760;DHT22;4919;48.792;9.202;2022-10-22T08:37:11;13.30;99.90
9760;DHT22;4919;48.792;9.202;2022-10-22T08:39:40;13.30;99.90
9760;DHT22;4919;48.792;9.202;2022-10-22T08:50:18;13.40;99.90
9760;DHT22;4919;48.792;9.202;2022-10-22T08:52:51;13.50;99.90
9760;DHT22;4919;48.792;9.202;2022-10-22T08:55:21;13.60;99.90
9760;DHT22;4919;48.792;9.202;2022-10-22T08:58:21;13.60;99.90
9760;DHT22;4919;48.792;9.202;2022-10-22T09:01:00;13.70;99.90
9760;DHT22;4919;48.792;9.202;2022-10-22T09:03:51;13.80;99.90
9760;DHT22;4919;48.792;9.202;2022-10-22T09:06:23;13.80;99.90
9760;DHT22;4919;48.792;9.202;2022-10-22T09:08:51;13.90;99.90
9760;DHT22;4919;48.792;9.202;2022-10-22T09:13:46;14.00;99.90
9760;DHT22;4919;48.792;9.202;2022-10-22T09:16:17;14.10;99.90
9760;DHT22;4919;48.792;9.202;2022-10-22T09:19:17;14.10;99.90
9760;DHT22;4919;48.792;9.202;2022-10-22T09:24:48;14.30;99.90
9760;DHT22;4919;48.792;9.202;2022-10-22T09:27:20;14.40;99.90
9760;DHT22;4919;48.792;9.202;2022-10-22T09:29:49;14.50;99.90
9760;DHT22;4919;48.792;9.202;2022-10-22T09:32:16;14.50;99.90
9760;DHT22;4919;48.792;9.202;2022-10-22T09:34:48;14.50;99.90
9760;DHT22;4919;48.792;9.202;2022-10-22T09:37:18;14.60;99.90
9760;DHT22;4919;48.792;9.202;2022-10-22T09:39:48;14.70;99.90
9760;DHT22;4919;48.792;9.202;2022-10-22T09:42:19;14.80;99.90
9760;DHT22;4919;48.792;9.202;2022-10-22T09:44:54;14.80;99.90
9760;DHT22;4919;48.792;9.202;2022-10-22T09:47:31;14.70;99.90
9760;DHT22;4919;48.792;9.202;2022-10-22T09:53:04;14.70;99.90
9760;DHT22;4919;48.792;9.202;2022-10-22T09:55:39;14.70;99.90
9760;DHT22;4919;48.792;9.202;2022-10-22T09:58:12;14.80;99.90
9760;DHT22;4919;48.792;9.202;2022-10-22T10:00:42;14.80;99.90
9760;DHT22;4919;48.792;9.202;2022-10-22T10:03:19;14.80;99.90
9760;DHT22;4919;48.792;9.202;2022-10-22T10:05:51;14.90;99.90
9760;DHT22;4919;48.792;9.202;2022-10-22T10:08:19;15.00;99.90
9760;DHT22;4919;48.792;9.202;2022-10-22T10:10:52;15.10;99.90
9760;DHT22;4919;48.792;9.202;2022-10-22T10:19:36;15.20;99.90
9760;DHT22;4919;48.792;9.202;2022-10-22T10:25:23;15.30;99.90
9760;DHT22;4919;48.792;9.202;2022-10-22T10:28:08;15.40;99.90
9760;DHT22;4919;48.792;9.202;2022-10-22T10:33:49;15.30;99.90
9760;DHT22;4919;48.792;9.202;2022-10-22T10:43:08;15.40;99.90
9760;DHT22;4919;48.792;9.202;2022-10-22T10:54:06;15.50;99.90
9760;DHT22;4919;48.792;9.202;2022-10-22T10:56:41;15.50;99.90
9760;DHT22;4919;48.792;9.202;2022-10-22T11:02:20;15.90;99.90
9760;DHT22;4919;48.792;9.202;2022-10-22T11:07:27;16.20;99.90
9760;DHT22;4919;48.792;9.202;2022-10-22T11:10:27;16.30;99.90
9760;DHT22;4919;48.792;9.202;2022-10-22T11:13:18;16.30;99.90
9760;DHT22;4919;48.792;9.202;2022-10-22T11:18:40;16.10;99.90
9760;DHT22;4919;48.792;9.202;2022-10-22T11:26:15;16.20;99.90
9760;DHT22;4919;48.792;9.202;2022-10-22T11:28:48;16.30;99.90
9760;DHT22;4919;48.792;9.202;2022-10-22T11:31:17;16.40;99.90
9760;DHT22;4919;48.792;9.202;2022-10-22T11:33:52;16.60;99.90
9760;DHT22;4919;48.792;9.202;2022-10-22T11:36:31;16.70;99.90
9760;DHT22;4919;48.792;9.202;2022-10-22T11:39:02;16.70;99.90
9760;DHT22;4919;48.792;9.202;2022-10-22T11:41:32;16.60;99.90
9760;DHT22;4919;48.792;9.202;2022-10-22T11:44:18;16.50;99.90
9760;DHT22;4919;48.792;9.202;2022-10-22T11:46:57;16.50;99.90
9760;DHT22;4919;48.792;9.202;2022-10-22T11:49:27;16.60;99.90
9760;DHT22;4919;48.792;9.202;2022-10-22T11:52:21;16.60;99.90
9760;DHT22;4919;48.792;9.202;2022-10-22T11:54:53;16.80;99.90
9760;DHT22;4919;48.792;9.202;2022-10-22T11:57:25;16.90;99.90
9760;DHT22;4919;48.792;9.202;2022-10-22T11:59:56;17.00;99.90
9760;DHT22;4919;48.792;9.202;2022-10-22T12:02:31;17.10;99.90
9760;DHT22;4919;48.792;9.202;2022-10-22T12:05:36;17.20;99.90
9760;DHT22;4919;48.792;9.202;2022-10-22T12:08:19;17.30;99.90
9760;DHT22;4919;48.792;9.202;2022-10-22T12:11:02;17.20;99.90
9760;DHT22;4919;48.792;9.202;2022-10-22T12:16:21;17.00;99.90
9760;DHT22;4919;48.792;9.202;2022-10-22T12:19:23;16.90;99.90
9760;DHT22;4919;48.792;9.202;2022-10-22T12:24:38;17.00;99.90
9760;DHT22;4919;48.792;9.202;2022-10-22T12:27:20;17.20;99.90
9760;DHT22;4919;48.792;9.202;2022-10-22T12:29:53;17.20;99.90
9760;DHT22;4919;48.792;9.202;2022-10-22T12:32:21;17.40;99.90
9760;DHT22;4919;48.792;9.202;2022-10-22T12:34:50;17.50;99.90
9760;DHT22;4919;48.792;9.202;2022-10-22T12:37:17;17.60;99.90
9760;DHT22;4919;48.792;9.202;2022-10-22T12:39:45;17.70;99.90
9760;DHT22;4919;48.792;9.202;2022-10-22T12:42:14;17.80;99.90
9760;DHT22;4919;48.792;9.202;2022-10-22T12:44:44;17.80;99.90
9760;DHT22;4919;48.792;9.202;2022-10-22T12:47:15;17.80;99.90
9760;DHT22;4919;48.792;9.202;2022-10-22T12:49:45;17.80;99.90
9760;DHT22;4919;48.792;9.202;2022-10-22T12:52:19;18.00;99.90
9760;DHT22;4919;48.792;9.202;2022-10-22T12:54:49;17.90;99.90
9760;DHT22;4919;48.792;9.202;2022-10-22T12:57:19;18.00;99.90
9760;DHT22;4919;48.792;9.202;2022-10-22T12:59:48;18.00;99.90
9760;DHT22;4919;48.792;9.202;2022-10-22T13:02:22;18.10;99.90
9760;DHT22;4919;48.792;9.202;2022-10-22T13:05:19;18.00;99.90
9760;DHT22;4919;48.792;9.202;2022-10-22T13:08:02;18.10;99.90
9760;DHT22;4919;48.792;9.202;2022-10-22T13:10:34;18.20;99.90
9760;DHT22;4919;48.792;9.202;2022-10-22T13:13:02;18.20;99.90
9760;DHT22;4919;48.792;9.202;2022-10-22T13:15:35;18.20;99.90
9760;DHT22;4919;48.792;9.202;2022-10-22T13:20:30;18.30;99.90
9760;DHT22;4919;48.792;9.202;2022-10-22T13:23:01;18.30;99.90
9760;DHT22;4919;48.792;9.202;2022-10-22T13:30:37;18.40;99.90
9760;DHT22;4919;48.792;9.202;2022-10-22T13:33:22;18.40;99.90
9760;DHT22;4919;48.792;9.202;2022-10-22T13:35:51;18.30;99.90
9760;DHT22;4919;48.792;9.202;2022-10-22T13:38:21;18.30;99.90
9760;DHT22;4919;48.792;9.202;2022-10-22T13:40:48;18.20;99.90
9760;DHT22;4919;48.792;9.202;2022-10-22T13:43:16;18.10;99.90
9760;DHT22;4919;48.792;9.202;2022-10-22T13:45:44;18.10;99.90
9760;DHT22;4919;48.792;9.202;2022-10-22T13:48:14;18.20;99.90
9760;DHT22;4919;48.792;9.202;2022-10-22T13:50:42;18.20;99.90
9760;DHT22;4919;48.792;9.202;2022-10-22T13:53:20;18.20;99.90
9760;DHT22;4919;48.792;9.202;2022-10-22T13:55:47;18.30;99.90
9760;DHT22;4919;48.792;9.202;2022-10-22T13:58:21;18.30;99.90
9760;DHT22;4919;48.792;9.202;2022-10-22T14:00:56;18.40;99.90
9760;DHT22;4919;48.792;9.202;2022-10-22T14:03:30;18.30;99.90
9760;DHT22;4919;48.792;9.202;2022-10-22T14:05:58;18.30;99.90
9760;DHT22;4919;48.792;9.202;2022-10-22T14:08:26;18.30;99.90
9760;DHT22;4919;48.792;9.202;2022-10-22T14:10:53;18.40;99.90
9760;DHT22;4919;48.792;9.202;2022-10-22T14:13:20;18.40;99.90
9760;DHT22;4919;48.792;9.202;2022-10-22T14:15:49;18.30;99.90
9760;DHT22;4919;48.792;9.202;2022-10-22T14:18:21;18.40;99.90
9760;DHT22;4919;48.792;9.202;2022-10-22T14:20:53;18.20;99.90
9760;DHT22;4919;48.792;9.202;2022-10-22T14:23:22;18.20;99.90
9760;DHT22;4919;48.792;9.202;2022-10-22T14:25:52;18.30;99.90
9760;DHT22;4919;48.792;9.202;2022-10-22T14:28:19;18.20;99.90
9760;DHT22;4919;48.792;9.202;2022-10-22T14:30:46;18.20;99.90
9760;DHT22;4919;48.792;9.202;2022-10-22T14:33:25;18.30;99.90
9760;DHT22;4919;48.792;9.202;2022-10-22T14:35:58;18.30;99.90
9760;DHT22;4919;48.792;9.202;2022-10-22T14:38:25;18.10;99.90
9760;DHT22;4919;48.792;9.202;2022-10-22T14:40:53;18.10;99.90
9760;DHT22;4919;48.792;9.202;2022-10-22T14:43:26;18.10;99.90
9760;DHT22;4919;48.792;9.202;2022-10-22T14:45:53;18.00;99.90
9760;DHT22;4919;48.792;9.202;2022-10-22T14:48:20;17.90;99.90
9760;DHT22;4919;48.792;9.202;2022-10-22T14:50:47;17.90;99.90
9760;DHT22;4919;48.792;9.202;2022-10-22T14:53:15;17.80;99.90
9760;DHT22;4919;48.792;9.202;2022-10-22T14:55:43;17.70;99.90
9760;DHT22;4919;48.792;9.202;2022-10-22T14:58:10;17.70;99.90
9760;DHT22;4919;48.792;9.202;2022-10-22T15:00:40;17.60;99.90
9760;DHT22;4919;48.792;9.202;2022-10-22T15:03:07;17.50;99.90
9760;DHT22;4919;48.792;9.202;2022-10-22T15:05:35;17.30;99.90
9760;DHT22;4919;48.792;9.202;2022-10-22T15:08:02;17.20;99.90
9760;DHT22;4919;48.792;9.202;2022-10-22T15:10:29;17.10;99.90
9760;DHT22;4919;48.792;9.202;2022-10-22T15:12:55;17.10;99.90
9760;DHT22;4919;48.792;9.202;2022-10-22T15:15:22;17.00;99.90
9760;DHT22;4919;48.792;9.202;2022-10-22T15:17:53;16.90;99.90
9760;DHT22;4919;48.792;9.202;2022-10-22T15:20:20;16.80;99.90
9760;DHT22;4919;48.792;9.202;2022-10-22T15:22:47;16.60;99.90
9760;DHT22;4919;48.792;9.202;2022-10-22T15:25:13;16.50;99.90
9760;DHT22;4919;48.792;9.202;2022-10-22T15:27:40;16.40;99.90
9760;DHT22;4919;48.792;9.202;2022-10-22T15:30:07;16.30;99.90
9760;DHT22;4919;48.792;9.202;2022-10-22T15:32:34;16.10;99.90
9760;DHT22;4919;48.792;9.202;2022-10-22T15:35:01;16.00;99.90
9760;DHT22;4919;48.792;9.202;2022-10-22T15:37:28;15.90;99.90
9760;DHT22;4919;48.792;9.202;2022-10-22T15:39:56;15.70;99.90
9760;DHT22;4919;48.792;9.202;2022-10-22T15:42:23;15.70;99.90
9760;DHT22;4919;48.792;9.202;2022-10-22T15:44:56;15.50;99.90
9760;DHT22;4919;48.792;9.202;2022-10-22T15:47:23;15.40;99.90
9760;DHT22;4919;48.792;9.202;2022-10-22T15:49:54;15.30;99.90
9760;DHT22;4919;48.792;9.202;2022-10-22T15:52:21;15.30;99.90
9760;DHT22;4919;48.792;9.202;2022-10-22T15:54:48;15.20;99.90
9760;DHT22;4919;48.792;9.202;2022-10-22T15:57:15;15.10;99.90
9760;DHT22;4919;48.792;9.202;2022-10-22T15:59:42;15.00;99.90
9760;DHT22;4919;48.792;9.202;2022-10-22T16:02:09;14.90;99.90
9760;DHT22;4919;48.792;9.202;2022-10-22T16:04:37;14.80;99.90
9760;DHT22;4919;48.792;9.202;2022-10-22T16:07:04;14.70;99.90
9760;DHT22;4919;48.792;9.202;2022-10-22T16:09:31;14.60;99.90
9760;DHT22;4919;48.792;9.202;2022-10-22T16:11:58;14.50;99.90
9760;DHT22;4919;48.792;9.202;2022-10-22T16:14:25;14.50;99.90
9760;DHT22;4919;48.792;9.202;2022-10-22T16:16:54;14.30;99.90
9760;DHT22;4919;48.792;9.202;2022-10-22T16:19:23;14.20;99.90
9760;DHT22;4919;48.792;9.202;2022-10-22T16:21:52;14.10;99.90
9760;DHT22;4919;48.792;9.202;2022-10-22T16:24:20;14.10;99.90
9760;DHT22;4919;48.792;9.202;2022-10-22T16:26:48;14.00;99.90
9760;DHT22;4919;48.792;9.202;2022-10-22T16:29:15;14.00;99.90
9760;DHT22;4919;48.792;9.202;2022-10-22T16:31:42;13.90;99.90
9760;DHT22;4919;48.792;9.202;2022-10-22T16:34:10;13.80;99.90
9760;DHT22;4919;48.792;9.202;2022-10-22T16:36:37;13.80;99.90
9760;DHT22;4919;48.792;9.202;2022-10-22T16:39:05;13.70;99.90
9760;DHT22;4919;48.792;9.202;2022-10-22T16:41:34;13.70;99.90
9760;DHT22;4919;48.792;9.202;2022-10-22T16:44:03;13.60;99.90
9760;DHT22;4919;48.792;9.202;2022-10-22T16:46:31;13.60;99.90
9760;DHT22;4919;48.792;9.202;2022-10-22T16:48:59;13.50;99.90
9760;DHT22;4919;48.792;9.202;2022-10-22T16:51:26;13.50;99.90
9760;DHT22;4919;48.792;9.202;2022-10-22T16:53:55;13.50;99.90
9760;DHT22;4919;48.792;9.202;2022-10-22T16:56:23;13.40;99.90
9760;DHT22;4919;48.792;9.202;2022-10-22T16:58:53;13.40;99.90
9760;DHT22;4919;48.792;9.202;2022-10-22T17:01:22;13.40;99.90
9760;DHT22;4919;48.792;9.202;2022-10-22T17:03:52;13.40;99.90
9760;DHT22;4919;48.792;9.202;2022-10-22T17:06:22;13.40;99.90
9760;DHT22;4919;48.792;9.202;2022-10-22T17:08:49;13.40;99.90
9760;DHT22;4919;48.792;9.202;2022-10-22T17:11:18;13.40;99.90
9760;DHT22;4919;48.792;9.202;2022-10-22T17:13:48;13.40;99.90
9760;DHT22;4919;48.792;9.202;2022-10-22T17:16:17;13.40;99.90
9760;DHT22;4919;48.792;9.202;2022-10-22T17:18:45;13.50;99.90
9760;DHT22;4919;48.792;9.202;2022-10-22T17:21:13;13.50;99.90
9760;DHT22;4919;48.792;9.202;2022-10-22T17:23:40;13.50;99.90
9760;DHT22;4919;48.792;9.202;2022-10-22T17:26:16;13.40;99.90
9760;DHT22;4919;48.792;9.202;2022-10-22T17:28:43;13.50;99.90
9760;DHT22;4919;48.792;9.202;2022-10-22T17:31:16;13.50;99.90
9760;DHT22;4919;48.792;9.202;2022-10-22T17:33:44;13.50;99.90
9760;DHT22;4919;48.792;9.202;2022-10-22T17:36:11;13.50;99.90
9760;DHT22;4919;48.792;9.202;2022-10-22T17:38:40;13.60;99.90
9760;DHT22;4919;48.792;9.202;2022-10-22T17:41:09;13.60;99.90
9760;DHT22;4919;48.792;9.202;2022-10-22T17:43:40;13.60;99.90
9760;DHT22;4919;48.792;9.202;2022-10-22T17:46:19;13.60;99.90
9760;DHT22;4919;48.792;9.202;2022-10-22T17:48:55;13.60;99.90
9760;DHT22;4919;48.792;9.202;2022-10-22T17:51:24;13.60;99.90
9760;DHT22;4919;48.792;9.202;2022-10-22T17:53:52;13.60;99.90
9760;DHT22;4919;48.792;9.202;2022-10-22T17:56:22;13.50;99.90
9760;DHT22;4919;48.792;9.202;2022-10-22T17:58:50;13.50;99.90
9760;DHT22;4919;48.792;9.202;2022-10-22T18:01:21;13.50;99.90